Time;durP1;ratioP1;P1;durP2;ratioP2;P2;SDS_P1;SDS_P2;PMS_P1;PMS_P2;Temp;Humidity;BMP_temperature;BMP_pressure;BME280_temperature;BME280_humidity;BME280_pressure;Samples;Min_cycle;Max_cycle;Signal;HPM_P1;HPM_P2
2022/07/20 00:02:26;;;;;;;;;47.00;38.75;;;;;;;;4982783;28;9801;-81
2022/07/20 00:04:53;;;;;;;;;43.75;37.00;;;;;;;;4965354;28;8881;-81
2022/07/20 00:07:21;;;;;;;;;48.00;39.75;;;;;;;;4981015;28;8873;-80
2022/07/20 00:12:34;;;;;;;;;54.25;44.50;;;;;;;;4964596;28;8849;-80
2022/07/20 00:15:02;;;;;;;;;52.50;43.25;;;;;;;;4982980;28;8865;-80
2022/07/20 00:17:30;;;;;;;;;55.00;44.75;;;;;;;;4958534;28;9273;-80
2022/07/20 00:19:57;;;;;;;;;54.00;45.25;;;;;;;;4981279;28;9023;-80
2022/07/20 00:22:25;;;;;;;;;53.25;45.00;;;;;;;;4958105;28;8877;-81
2022/07/20 00:24:52;;;;;;;;;53.50;45.50;;;;;;;;4984264;28;9003;-80
2022/07/20 00:27:19;;;;;;;;;52.75;44.25;;;;;;;;4985517;28;8881;-80
2022/07/20 00:29:48;;;;;;;;;55.25;45.25;;;;;;;;4980449;28;8971;-80
2022/07/20 00:32:15;;;;;;;;;55.75;46.00;;;;;;;;4982257;28;8801;-80
2022/07/20 00:34:42;;;;;;;;;52.50;44.00;;;;;;;;4980734;28;8877;-80
2022/07/20 00:37:10;;;;;;;;;50.25;41.50;;;;;;;;4980913;28;8893;-80
2022/07/20 00:39:37;;;;;;;;;54.50;45.50;;;;;;;;4977657;28;8917;-78
2022/07/20 00:42:05;;;;;;;;;52.75;42.75;;;;;;;;4980875;28;8891;-80
2022/07/20 00:44:32;;;;;;;;;47.25;38.75;;;;;;;;4960451;28;8885;-79
2022/07/20 00:47:00;;;;;;;;;51.75;42.75;;;;;;;;4964927;28;8879;-79
2022/07/20 00:49:28;;;;;;;;;36.00;30.75;;;;;;;;4979546;28;8881;-79
2022/07/20 00:51:55;;;;;;;;;50.50;41.25;;;;;;;;4981711;28;8884;-78
2022/07/20 00:54:22;;;;;;;;;51.50;44.00;;;;;;;;4980268;28;8936;-80
2022/07/20 00:56:50;;;;;;;;;50.50;43.00;;;;;;;;4982417;28;8846;-79
2022/07/20 00:59:17;;;;;;;;;56.25;45.25;;;;;;;;4980061;28;9640;-77
2022/07/20 01:01:44;;;;;;;;;52.75;43.75;;;;;;;;4977117;28;8842;-80
2022/07/20 01:04:13;;;;;;;;;45.00;39.00;;;;;;;;4982388;28;9985;-81
2022/07/20 01:06:40;;;;;;;;;53.75;44.75;;;;;;;;4979694;28;9828;-79
2022/07/20 01:09:08;;;;;;;;;51.00;43.75;;;;;;;;4962113;28;8873;-80
2022/07/20 01:11:36;;;;;;;;;55.00;45.00;;;;;;;;4963373;28;8908;-81
2022/07/20 01:14:04;;;;;;;;;59.75;47.50;;;;;;;;4976517;28;8877;-81
2022/07/20 01:16:31;;;;;;;;;60.00;48.75;;;;;;;;4983428;28;8877;-81
2022/07/20 01:18:59;;;;;;;;;59.25;47.25;;;;;;;;4962114;28;8901;-80
2022/07/20 01:21:28;;;;;;;;;50.25;42.50;;;;;;;;4979869;28;8869;-80
2022/07/20 01:23:55;;;;;;;;;56.75;46.50;;;;;;;;4978747;28;8876;-81
2022/07/20 01:26:22;;;;;;;;;52.25;42.50;;;;;;;;4949701;28;8939;-79
2022/07/20 01:28:50;;;;;;;;;56.75;47.00;;;;;;;;4981665;28;8889;-80
2022/07/20 01:31:17;;;;;;;;;53.50;44.75;;;;;;;;4963992;28;8948;-81
2022/07/20 01:33:44;;;;;;;;;53.75;44.00;;;;;;;;4978990;28;8887;-80
2022/07/20 01:36:12;;;;;;;;;61.25;49.50;;;;;;;;4974725;28;8917;-79
2022/07/20 01:38:40;;;;;;;;;55.25;44.75;;;;;;;;4979686;28;8923;-78
2022/07/20 01:41:08;;;;;;;;;55.25;45.25;;;;;;;;4980748;28;8921;-80
2022/07/20 01:43:35;;;;;;;;;58.75;48.00;;;;;;;;4977952;28;8987;-79
2022/07/20 01:46:02;;;;;;;;;57.75;47.50;;;;;;;;4980277;28;9685;-79
2022/07/20 01:48:30;;;;;;;;;56.75;46.50;;;;;;;;4977284;28;9687;-81
2022/07/20 01:50:57;;;;;;;;;56.25;46.25;;;;;;;;4980972;28;8886;-79
2022/07/20 01:53:24;;;;;;;;;61.50;49.25;;;;;;;;4980354;28;8883;-79
2022/07/20 01:55:54;;;;;;;;;64.00;52.00;;;;;;;;4982052;28;8849;-79
2022/07/20 01:58:22;;;;;;;;;61.25;50.00;;;;;;;;4977323;28;9831;-80
2022/07/20 02:00:50;;;;;;;;;59.00;48.00;;;;;;;;4978985;28;8877;-79
2022/07/20 02:03:18;;;;;;;;;60.50;48.75;;;;;;;;4979956;28;8858;-81
2022/07/20 02:05:46;;;;;;;;;50.75;42.00;;;;;;;;4981125;28;8921;-79
2022/07/20 02:08:13;;;;;;;;;56.50;45.50;;;;;;;;4981147;28;8951;-81
2022/07/20 02:10:40;;;;;;;;;50.75;42.00;;;;;;;;4981023;28;8907;-78
2022/07/20 02:13:09;;;;;;;;;55.00;45.00;;;;;;;;4980945;28;8897;-80
2022/07/20 02:18:21;;;;;;;;;53.00;44.00;;;;;;;;4980504;28;8853;-80
2022/07/20 02:20:48;;;;;;;;;52.25;44.00;;;;;;;;4981923;28;8955;-82
2022/07/20 02:23:15;;;;;;;;;48.00;40.25;;;;;;;;4981989;28;8972;-80
2022/07/20 02:25:43;;;;;;;;;53.75;43.75;;;;;;;;4981331;28;8868;-80
2022/07/20 02:28:11;;;;;;;;;48.25;41.25;;;;;;;;4981260;28;8927;-80
2022/07/20 02:30:40;;;;;;;;;40.25;35.00;;;;;;;;4983688;28;9467;-81
2022/07/20 02:33:08;;;;;;;;;48.75;40.75;;;;;;;;4983034;28;8853;-83
2022/07/20 02:35:35;;;;;;;;;50.00;41.00;;;;;;;;4986075;28;8888;-80
2022/07/20 02:38:02;;;;;;;;;49.50;39.75;;;;;;;;4983248;28;9012;-80
2022/07/20 02:40:29;;;;;;;;;51.75;43.25;;;;;;;;4983531;28;8907;-82
2022/07/20 02:42:57;;;;;;;;;48.50;40.25;;;;;;;;4981226;28;8872;-84
2022/07/20 02:45:25;;;;;;;;;47.50;41.00;;;;;;;;4983964;28;9019;-81
2022/07/20 02:47:54;;;;;;;;;52.75;43.75;;;;;;;;4983930;28;9643;-84
2022/07/20 02:50:21;;;;;;;;;53.25;42.50;;;;;;;;4982981;28;8881;-81
2022/07/20 02:52:49;;;;;;;;;52.75;43.50;;;;;;;;4984819;28;8866;-82
2022/07/20 02:55:16;;;;;;;;;51.75;43.00;;;;;;;;4966828;28;8971;-81
2022/07/20 02:57:43;;;;;;;;;52.75;42.50;;;;;;;;4983212;28;8866;-82
2022/07/20 03:00:11;;;;;;;;;53.25;43.75;;;;;;;;4982589;28;8935;-81
2022/07/20 03:02:41;;;;;;;;;53.75;43.75;;;;;;;;4983495;28;9651;-80
2022/07/20 03:05:09;;;;;;;;;50.50;42.75;;;;;;;;4982693;28;8877;-81
2022/07/20 03:07:36;;;;;;;;;51.75;43.75;;;;;;;;4978558;28;8873;-81
2022/07/20 03:10:04;;;;;;;;;49.50;42.25;;;;;;;;4977337;28;8967;-79
2022/07/20 03:12:32;;;;;;;;;56.00;46.00;;;;;;;;4980920;28;8877;-83
2022/07/20 03:14:59;;;;;;;;;56.00;46.50;;;;;;;;4985458;28;8996;-81
2022/07/20 03:17:26;;;;;;;;;54.75;45.75;;;;;;;;4985002;28;8879;-82
2022/07/20 03:19:55;;;;;;;;;52.00;43.50;;;;;;;;4983769;28;8873;-83
2022/07/20 03:22:22;;;;;;;;;55.00;44.50;;;;;;;;4984655;28;8908;-82
2022/07/20 03:24:50;;;;;;;;;57.00;46.25;;;;;;;;4982018;28;8881;-82
2022/07/20 03:27:17;;;;;;;;;51.50;43.25;;;;;;;;4966830;28;8887;-81
2022/07/20 03:29:44;;;;;;;;;51.25;42.25;;;;;;;;4983495;28;8881;-81
2022/07/20 03:32:12;;;;;;;;;51.50;43.00;;;;;;;;4983165;28;8822;-80
2022/07/20 03:34:40;;;;;;;;;54.00;43.75;;;;;;;;4981502;28;8861;-81
2022/07/20 03:37:08;;;;;;;;;51.25;42.25;;;;;;;;4982158;28;8869;-81
2022/07/20 03:39:36;;;;;;;;;54.50;45.50;;;;;;;;4979654;28;9771;-82
2022/07/20 03:42:03;;;;;;;;;57.75;45.50;;;;;;;;4974816;28;8859;-81
2022/07/20 03:44:31;;;;;;;;;55.50;45.50;;;;;;;;4963148;28;8861;-79
2022/07/20 03:46:58;;;;;;;;;55.25;44.00;;;;;;;;4981875;28;8936;-81
2022/07/20 03:49:25;;;;;;;;;56.25;46.75;;;;;;;;4982221;28;8897;-82
2022/07/20 03:51:53;;;;;;;;;61.50;49.25;;;;;;;;4984465;28;8943;-81
2022/07/20 03:54:21;;;;;;;;;60.75;48.75;;;;;;;;4982640;28;8896;-83
2022/07/20 03:56:49;;;;;;;;;57.50;47.75;;;;;;;;4982406;28;10125;-82
2022/07/20 03:59:16;;;;;;;;;56.50;45.50;;;;;;;;4981653;28;9797;-82
2022/07/20 04:01:43;;;;;;;;;58.00;47.50;;;;;;;;4982417;28;8861;-83
2022/07/20 04:04:10;;;;;;;;;56.00;46.25;;;;;;;;4982362;28;8881;-82
2022/07/20 04:06:38;;;;;;;;;56.50;46.75;;;;;;;;4984098;28;8889;-81
2022/07/20 04:09:06;;;;;;;;;52.25;44.00;;;;;;;;4980178;28;8889;-81
2022/07/20 04:11:35;;;;;;;;;54.75;45.50;;;;;;;;4982137;28;8901;-80
2022/07/20 04:14:03;;;;;;;;;54.25;45.25;;;;;;;;4982566;28;8876;-80
2022/07/20 04:16:30;;;;;;;;;55.25;45.75;;;;;;;;4979945;28;8904;-79
2022/07/20 04:18:57;;;;;;;;;57.25;46.75;;;;;;;;4978535;28;8856;-79
2022/07/20 04:21:25;;;;;;;;;52.75;45.00;;;;;;;;4981999;28;8938;-80
2022/07/20 04:23:52;;;;;;;;;59.00;47.00;;;;;;;;4983157;28;8911;-77
2022/07/20 04:26:19;;;;;;;;;55.25;45.50;;;;;;;;4966220;28;8865;-83
2022/07/20 04:28:48;;;;;;;;;54.75;46.00;;;;;;;;4978553;28;8854;-84
2022/07/20 04:31:15;;;;;;;;;53.00;44.50;;;;;;;;4982636;28;8842;-81
2022/07/20 04:33:43;;;;;;;;;58.00;45.75;;;;;;;;4980911;28;8901;-83
2022/07/20 04:36:10;;;;;;;;;54.25;44.75;;;;;;;;4961415;28;9802;-81
2022/07/20 04:38:38;;;;;;;;;54.25;45.00;;;;;;;;4981898;28;8923;-81
2022/07/20 04:41:05;;;;;;;;;53.25;45.00;;;;;;;;4964747;28;9015;-80
2022/07/20 04:43:32;;;;;;;;;51.50;42.50;;;;;;;;4980525;28;8913;-82
2022/07/20 04:46:01;;;;;;;;;54.25;45.75;;;;;;;;4983360;28;9111;-81
2022/07/20 04:48:29;;;;;;;;;50.50;42.25;;;;;;;;4979733;28;8923;-81
2022/07/20 04:50:56;;;;;;;;;50.75;43.25;;;;;;;;4983008;28;8893;-80
2022/07/20 04:53:23;;;;;;;;;55.50;44.75;;;;;;;;4984406;28;8869;-79
2022/07/20 04:55:51;;;;;;;;;54.00;44.25;;;;;;;;4982446;28;8904;-79
2022/07/20 04:58:18;;;;;;;;;53.25;44.75;;;;;;;;4965623;28;8888;-79
2022/07/20 05:00:45;;;;;;;;;52.50;42.25;;;;;;;;4981091;28;8911;-78
2022/07/20 05:03:14;;;;;;;;;57.25;47.75;;;;;;;;4982529;28;8885;-79
2022/07/20 05:05:41;;;;;;;;;54.00;45.50;;;;;;;;4982944;28;8985;-77
2022/07/20 05:08:09;;;;;;;;;52.25;44.50;;;;;;;;4963675;28;8925;-80
2022/07/20 05:10:37;;;;;;;;;57.00;47.75;;;;;;;;4983254;28;8900;-79
2022/07/20 05:13:04;;;;;;;;;56.00;45.50;;;;;;;;4981459;28;8895;-79
2022/07/20 05:15:31;;;;;;;;;54.00;45.50;;;;;;;;4983662;28;8865;-78
2022/07/20 05:17:58;;;;;;;;;60.50;47.75;;;;;;;;4979235;28;8907;-81
2022/07/20 05:20:28;;;;;;;;;56.50;46.00;;;;;;;;4982047;28;8889;-81
2022/07/20 05:22:55;;;;;;;;;55.50;45.00;;;;;;;;4982508;28;8893;-81
2022/07/20 05:25:22;;;;;;;;;61.00;49.00;;;;;;;;4982264;28;8873;-81
2022/07/20 05:27:50;;;;;;;;;58.50;47.25;;;;;;;;4963436;28;8861;-80
2022/07/20 05:30:17;;;;;;;;;53.50;44.00;;;;;;;;4980201;28;8903;-83
2022/07/20 05:32:44;;;;;;;;;56.75;45.75;;;;;;;;4980225;28;8845;-82
2022/07/20 05:35:12;;;;;;;;;55.50;46.50;;;;;;;;4963522;28;8897;-81
2022/07/20 05:37:41;;;;;;;;;53.75;44.00;;;;;;;;4961288;28;8873;-82
2022/07/20 05:40:09;;;;;;;;;55.00;45.00;;;;;;;;4962797;28;8877;-81
2022/07/20 05:42:37;;;;;;;;;56.50;44.75;;;;;;;;4982451;28;8959;-81
2022/07/20 05:45:05;;;;;;;;;53.25;45.25;;;;;;;;4981589;28;8869;-81
2022/07/20 05:47:32;;;;;;;;;55.50;46.25;;;;;;;;4963298;28;8900;-81
2022/07/20 05:49:59;;;;;;;;;54.75;45.50;;;;;;;;4964224;28;8859;-81
2022/07/20 05:52:27;;;;;;;;;60.50;48.00;;;;;;;;4979736;28;8927;-81
2022/07/20 05:54:56;;;;;;;;;52.75;44.75;;;;;;;;4980323;28;8861;-83
2022/07/20 05:57:23;;;;;;;;;53.50;44.25;;;;;;;;4961979;28;9726;-82
2022/07/20 05:59:52;;;;;;;;;55.00;45.00;;;;;;;;4964547;28;9741;-81
2022/07/20 06:02:19;;;;;;;;;58.75;48.00;;;;;;;;4960777;28;8840;-82
2022/07/20 06:04:47;;;;;;;;;59.50;47.00;;;;;;;;4983111;28;8885;-81
2022/07/20 06:07:14;;;;;;;;;58.75;48.50;;;;;;;;4987177;28;8861;-82
2022/07/20 06:09:41;;;;;;;;;53.75;45.50;;;;;;;;4983752;28;8877;-79
2022/07/20 06:12:11;;;;;;;;;57.75;47.25;;;;;;;;4968550;28;8888;-80
2022/07/20 06:14:38;;;;;;;;;56.25;46.75;;;;;;;;4986123;28;8877;-80
2022/07/20 06:17:05;;;;;;;;;53.75;45.50;;;;;;;;4983834;28;8883;-80
2022/07/20 06:19:33;;;;;;;;;61.75;50.00;;;;;;;;4984734;28;8995;-80
2022/07/20 06:22:00;;;;;;;;;53.50;45.25;;;;;;;;4985885;28;8885;-80
2022/07/20 06:24:27;;;;;;;;;57.25;46.00;;;;;;;;4969155;28;8908;-81
2022/07/20 06:26:55;;;;;;;;;52.00;43.75;;;;;;;;4981505;28;8889;-81
2022/07/20 06:29:23;;;;;;;;;60.00;47.50;;;;;;;;4985630;28;9000;-81
2022/07/20 06:31:51;;;;;;;;;58.75;48.00;;;;;;;;4984508;28;9282;-83
2022/07/20 06:34:18;;;;;;;;;58.00;47.50;;;;;;;;4983649;28;8916;-83
2022/07/20 06:36:46;;;;;;;;;58.50;48.50;;;;;;;;4984203;28;8996;-83
2022/07/20 06:39:13;;;;;;;;;54.00;44.50;;;;;;;;4984118;28;8857;-78
2022/07/20 06:41:40;;;;;;;;;56.50;45.25;;;;;;;;4984349;28;8845;-79
2022/07/20 06:44:08;;;;;;;;;56.75;46.25;;;;;;;;4982599;28;9005;-79
2022/07/20 06:46:36;;;;;;;;;54.75;44.50;;;;;;;;4968178;28;9818;-78
2022/07/20 06:49:06;;;;;;;;;53.50;43.75;;;;;;;;4982667;28;8923;-78
2022/07/20 06:51:33;;;;;;;;;56.50;46.50;;;;;;;;4977049;28;8865;-70
2022/07/20 06:54:00;;;;;;;;;52.25;43.50;;;;;;;;4977953;28;8861;-72
2022/07/20 06:56:28;;;;;;;;;55.75;46.75;;;;;;;;4980507;28;9026;-75
2022/07/20 06:58:55;;;;;;;;;58.00;47.75;;;;;;;;4977564;28;8893;-74
2022/07/20 07:01:22;;;;;;;;;55.00;45.50;;;;;;;;4978051;28;8853;-72
2022/07/20 07:03:51;;;;;;;;;56.00;45.25;;;;;;;;4980817;28;8881;-72
2022/07/20 07:06:18;;;;;;;;;50.50;41.75;;;;;;;;4977374;28;8865;-71
2022/07/20 07:08:46;;;;;;;;;54.75;45.75;;;;;;;;4983381;28;8931;-73
2022/07/20 07:11:13;;;;;;;;;54.50;45.25;;;;;;;;4982021;28;8865;-72
2022/07/20 07:13:41;;;;;;;;;47.00;38.75;;;;;;;;4980849;28;8905;-73
2022/07/20 07:16:08;;;;;;;;;51.75;43.25;;;;;;;;4976917;28;9704;-73
2022/07/20 07:18:36;;;;;;;;;56.25;45.50;;;;;;;;4979621;28;8893;-74
2022/07/20 07:21:04;;;;;;;;;52.75;43.75;;;;;;;;4973360;28;8893;-72
2022/07/20 07:23:32;;;;;;;;;53.50;44.75;;;;;;;;4982717;28;8943;-72
2022/07/20 07:25:59;;;;;;;;;59.00;48.00;;;;;;;;4983801;28;9013;-72
2022/07/20 07:28:27;;;;;;;;;51.00;43.25;;;;;;;;4981985;28;8885;-72
2022/07/20 07:30:54;;;;;;;;;55.75;46.75;;;;;;;;4983598;28;9480;-73
2022/07/20 07:33:25;;;;;;;;;55.25;45.00;;;;;;;;4943218;28;9669;-72
2022/07/20 07:35:52;;;;;;;;;54.00;45.00;;;;;;;;4964661;28;8879;-72
2022/07/20 07:38:21;;;;;;;;;54.75;45.00;;;;;;;;4983256;28;8877;-74
2022/07/20 07:40:49;;;;;;;;;52.75;44.00;;;;;;;;4983442;28;8861;-72
2022/07/20 07:43:17;;;;;;;;;54.00;44.00;;;;;;;;4983053;28;8889;-73
2022/07/20 07:45:44;;;;;;;;;53.00;44.00;;;;;;;;4979142;28;8946;-73
2022/07/20 07:48:11;;;;;;;;;52.00;42.50;;;;;;;;4981608;28;8881;-72
2022/07/20 07:50:39;;;;;;;;;54.25;45.25;;;;;;;;4983045;28;8944;-73
2022/07/20 07:53:07;;;;;;;;;55.00;45.25;;;;;;;;4980204;28;8881;-72
2022/07/20 07:55:36;;;;;;;;;57.00;46.50;;;;;;;;4981946;28;8987;-73
2022/07/20 07:58:03;;;;;;;;;55.50;46.00;;;;;;;;4981930;28;8885;-71
2022/07/20 08:00:31;;;;;;;;;55.50;45.75;;;;;;;;4965372;28;9192;-72
2022/07/20 08:02:59;;;;;;;;;52.75;44.00;;;;;;;;4981300;28;8849;-71
2022/07/20 08:05:26;;;;;;;;;56.25;47.00;;;;;;;;4979280;28;8887;-72
2022/07/20 08:07:53;;;;;;;;;54.75;46.25;;;;;;;;4978129;28;8876;-75
2022/07/20 08:10:21;;;;;;;;;54.50;46.00;;;;;;;;4977791;28;8903;-72
2022/07/20 08:12:49;;;;;;;;;55.25;45.50;;;;;;;;4982334;28;8869;-71
2022/07/20 08:15:17;;;;;;;;;51.25;43.50;;;;;;;;4977076;28;8857;-72
2022/07/20 08:17:46;;;;;;;;;56.75;46.75;;;;;;;;4964193;28;9694;-71
2022/07/20 08:20:14;;;;;;;;;53.50;43.25;;;;;;;;4983035;28;8900;-73
2022/07/20 08:22:41;;;;;;;;;55.00;45.00;;;;;;;;4980668;28;8919;-72
2022/07/20 08:25:09;;;;;;;;;51.75;43.25;;;;;;;;4976695;28;8920;-72
2022/07/20 08:27:37;;;;;;;;;56.50;46.50;;;;;;;;4980132;28;8893;-73
2022/07/20 08:30:07;;;;;;;;;53.50;44.50;;;;;;;;4979846;28;8857;-72
2022/07/20 08:32:34;;;;;;;;;53.25;44.00;;;;;;;;4980303;28;8893;-72
2022/07/20 08:35:02;;;;;;;;;53.25;44.25;;;;;;;;4984715;28;8861;-72
2022/07/20 08:37:30;;;;;;;;;50.50;43.00;;;;;;;;4983300;28;8881;-72
2022/07/20 08:39:57;;;;;;;;;49.00;39.00;;;;;;;;4982205;28;9734;-73
2022/07/20 08:42:24;;;;;;;;;48.50;39.00;;;;;;;;4982011;28;8913;-74
2022/07/20 08:44:52;;;;;;;;;48.75;41.25;;;;;;;;4983195;28;8935;-73
2022/07/20 08:47:24;;;;;;;;;45.75;38.50;;;;;;;;4979111;28;8857;-72
2022/07/20 08:49:52;;;;;;;;;45.25;39.00;;;;;;;;4965447;28;8868;-73
2022/07/20 08:52:19;;;;;;;;;49.75;41.25;;;;;;;;4980050;28;8875;-73
2022/07/20 08:54:47;;;;;;;;;47.25;40.50;;;;;;;;4981784;28;8886;-73
2022/07/20 08:57:16;;;;;;;;;45.00;36.75;;;;;;;;4983078;28;8865;-73
2022/07/20 08:59:44;;;;;;;;;36.50;34.00;;;;;;;;4979103;28;8868;-73
2022/07/20 09:02:12;;;;;;;;;35.00;32.00;;;;;;;;4980834;28;8841;-73
2022/07/20 09:04:53;;;;;;;;;43.00;36.25;;;;;;;;4983257;28;8873;-72
2022/07/20 09:07:38;;;;;;;;;35.25;32.50;;;;;;;;4981921;28;8895;-72
2022/07/20 09:10:10;;;;;;;;;23.00;23.00;;;;;;;;4980036;28;8868;-74
2022/07/20 09:12:55;;;;;;;;;30.00;29.25;;;;;;;;4978141;28;9111;-74
2022/07/20 09:15:32;;;;;;;;;33.25;31.00;;;;;;;;4979267;28;8912;-73
2022/07/20 09:18:07;;;;;;;;;31.75;28.00;;;;;;;;4976768;28;8866;-73
2022/07/20 09:20:38;;;;;;;;;28.00;28.00;;;;;;;;4978000;28;8859;-74
2022/07/20 09:23:08;;;;;;;;;33.50;31.00;;;;;;;;4983519;28;8860;-74
2022/07/20 09:25:36;;;;;;;;;28.00;26.75;;;;;;;;4982028;28;8915;-73
2022/07/20 09:28:03;;;;;;;;;31.75;28.75;;;;;;;;4961418;28;8922;-73
2022/07/20 09:30:31;;;;;;;;;31.25;27.50;;;;;;;;4980575;28;8832;-73
2022/07/20 09:33:01;;;;;;;;;27.75;26.75;;;;;;;;4977801;28;8865;-75
2022/07/20 09:35:31;;;;;;;;;34.50;32.00;;;;;;;;4979341;28;8865;-77
2022/07/20 09:38:02;;;;;;;;;27.50;26.50;;;;;;;;4979163;28;8911;-74
2022/07/20 09:40:37;;;;;;;;;30.50;30.25;;;;;;;;4979630;28;8857;-74
2022/07/20 09:43:04;;;;;;;;;21.50;19.00;;;;;;;;4979815;28;8889;-72
2022/07/20 09:45:32;;;;;;;;;32.00;30.75;;;;;;;;4983650;28;8974;-75
2022/07/20 09:48:07;;;;;;;;;33.75;30.50;;;;;;;;4980337;28;8869;-74
2022/07/20 09:50:37;;;;;;;;;28.75;28.75;;;;;;;;4962679;28;8857;-74
2022/07/20 09:53:10;;;;;;;;;28.75;28.25;;;;;;;;4977265;28;8875;-73
2022/07/20 09:55:38;;;;;;;;;30.75;28.75;;;;;;;;4989759;28;8870;-75
2022/07/20 09:58:09;;;;;;;;;33.00;31.50;;;;;;;;4985231;28;8912;-76
2022/07/20 10:00:37;;;;;;;;;28.20;28.20;;;;;;;;4987983;28;8919;-72
2022/07/20 10:03:07;;;;;;;;;31.50;30.00;;;;;;;;4979746;28;8889;-74
2022/07/20 10:05:36;;;;;;;;;28.50;24.50;;;;;;;;4979127;28;8853;-73
2022/07/20 10:08:05;;;;;;;;;30.00;29.80;;;;;;;;4982175;28;8885;-73
2022/07/20 10:10:34;;;;;;;;;25.60;25.60;;;;;;;;4980629;28;8887;-74
2022/07/20 10:13:02;;;;;;;;;35.75;29.25;;;;;;;;4979795;28;8872;-72
2022/07/20 10:15:42;;;;;;;;;34.75;30.00;;;;;;;;4983243;28;8934;-73
2022/07/20 10:18:11;;;;;;;;;30.20;28.40;;;;;;;;4974923;28;8886;-72
2022/07/20 10:20:39;;;;;;;;;28.00;28.00;;;;;;;;4979534;28;8955;-73
2022/07/20 10:23:32;;;;;;;;;25.60;24.40;;;;;;;;4979257;28;9678;-73
2022/07/20 10:26:02;;;;;;;;;24.40;22.80;;;;;;;;4980738;28;8907;-73
2022/07/20 10:28:35;;;;;;;;;22.40;22.40;;;;;;;;4975710;28;8941;-72
2022/07/20 10:31:08;;;;;;;;;23.60;23.60;;;;;;;;4977374;28;8813;-73
2022/07/20 10:33:38;;;;;;;;;23.00;22.00;;;;;;;;4975475;28;8878;-73
2022/07/20 10:39:34;;;;;;;;;25.20;23.40;;;;;;;;4978198;28;10284;-72
2022/07/20 10:42:23;;;;;;;;;17.00;17.00;;;;;;;;4975958;28;8877;-73
2022/07/20 10:44:50;;;;;;;;;21.50;18.25;;;;;;;;4979621;28;8900;-72
2022/07/20 10:47:42;;;;;;;;;14.75;14.25;;;;;;;;4981008;28;8877;-71
2022/07/20 10:50:11;;;;;;;;;19.00;17.25;;;;;;;;4979485;28;8884;-71
2022/07/20 10:52:38;;;;;;;;;19.75;15.50;;;;;;;;4975734;28;8885;-71
2022/07/20 10:55:06;;;;;;;;;21.00;18.50;;;;;;;;4974389;28;8894;-72
2022/07/20 10:57:39;;;;;;;;;21.25;20.00;;;;;;;;4975516;28;8877;-71
2022/07/20 11:00:13;;;;;;;;;22.00;22.00;;;;;;;;4968208;28;9024;-72
2022/07/20 11:02:41;;;;;;;;;20.25;20.25;;;;;;;;4976171;28;8873;-70
2022/07/20 11:05:21;;;;;;;;;22.75;22.75;;;;;;;;4975790;28;9623;-70
2022/07/20 11:07:48;;;;;;;;;26.00;24.50;;;;;;;;4974836;28;8901;-70
2022/07/20 11:10:25;;;;;;;;;22.00;20.75;;;;;;;;4955358;28;9018;-71
2022/07/20 11:12:59;;;;;;;;;21.75;19.75;;;;;;;;4975740;28;8880;-70
2022/07/20 11:15:39;;;;;;;;;19.25;17.50;;;;;;;;4973146;28;8859;-70
2022/07/20 11:18:08;;;;;;;;;17.00;16.25;;;;;;;;4974309;28;8926;-70
2022/07/20 11:20:35;;;;;;;;;19.25;19.25;;;;;;;;4976023;28;9705;-74
2022/07/20 11:23:04;;;;;;;;;21.00;19.00;;;;;;;;4974084;28;8990;-70
2022/07/20 11:25:48;;;;;;;;;19.25;19.25;;;;;;;;4977982;28;9635;-72
2022/07/20 11:28:20;;;;;;;;;18.25;15.75;;;;;;;;4971225;28;9413;-73
2022/07/20 11:30:49;;;;;;;;;16.75;15.50;;;;;;;;4973709;28;9390;-72
2022/07/20 11:33:23;;;;;;;;;17.50;17.50;;;;;;;;4973622;28;8875;-72
2022/07/20 11:35:51;;;;;;;;;19.25;16.50;;;;;;;;4972942;28;8900;-71
2022/07/20 11:38:18;;;;;;;;;16.00;16.00;;;;;;;;4973502;28;8889;-71
2022/07/20 11:41:00;;;;;;;;;15.80;15.80;;;;;;;;4969781;28;8900;-72
2022/07/20 11:43:28;;;;;;;;;15.25;15.25;;;;;;;;4974008;28;8895;-72
2022/07/20 11:46:09;;;;;;;;;18.75;18.00;;;;;;;;4976214;28;8867;-72
2022/07/20 11:48:37;;;;;;;;;15.20;15.00;;;;;;;;4974423;28;8861;-72
2022/07/20 11:51:04;;;;;;;;;18.50;16.50;;;;;;;;4972042;28;8859;-71
2022/07/20 11:53:33;;;;;;;;;16.80;16.80;;;;;;;;4978206;28;8887;-72
2022/07/20 11:56:02;;;;;;;;;18.00;18.00;;;;;;;;4978093;28;8881;-74
2022/07/20 11:58:33;;;;;;;;;18.00;17.20;;;;;;;;4973321;28;8865;-72
2022/07/20 12:01:01;;;;;;;;;16.00;16.00;;;;;;;;4981324;28;8834;-74
2022/07/20 12:03:32;;;;;;;;;19.50;19.50;;;;;;;;4979835;28;8883;-73
2022/07/20 12:06:04;;;;;;;;;24.75;22.25;;;;;;;;4980805;28;9011;-72
2022/07/20 12:08:32;;;;;;;;;15.75;14.75;;;;;;;;4982388;28;8908;-73
2022/07/20 12:11:01;;;;;;;;;19.50;17.50;;;;;;;;4982694;28;8873;-73
2022/07/20 12:13:30;;;;;;;;;16.00;16.00;;;;;;;;4980746;28;9758;-74
2022/07/20 12:16:01;;;;;;;;;17.20;16.60;;;;;;;;4983740;28;8887;-73
2022/07/20 12:18:39;;;;;;;;;19.00;16.80;;;;;;;;4981729;28;8877;-73
2022/07/20 12:21:09;;;;;;;;;18.80;15.00;;;;;;;;4979452;28;8860;-73
2022/07/20 12:23:37;;;;;;;;;20.80;20.80;;;;;;;;4981809;28;8877;-74
2022/07/20 12:26:25;;;;;;;;;15.00;15.00;;;;;;;;4984140;28;9037;-73
2022/07/20 12:28:55;;;;;;;;;17.40;17.40;;;;;;;;4980308;28;8885;-74
2022/07/20 12:31:26;;;;;;;;;21.40;17.40;;;;;;;;4980946;28;8929;-74
2022/07/20 12:34:08;;;;;;;;;19.60;17.80;;;;;;;;4982273;28;8865;-74
2022/07/20 12:36:38;;;;;;;;;19.00;19.00;;;;;;;;4982328;28;8889;-74
2022/07/20 12:39:10;;;;;;;;;20.20;17.40;;;;;;;;4962723;28;8943;-74
2022/07/20 12:41:38;;;;;;;;;19.20;19.20;;;;;;;;4982928;28;8896;-74
2022/07/20 12:44:27;;;;;;;;;19.20;19.20;;;;;;;;4980820;28;8881;-73
2022/07/20 12:46:55;;;;;;;;;22.50;21.75;;;;;;;;4981395;28;8849;-73
2022/07/20 12:49:25;;;;;;;;;16.60;16.60;;;;;;;;4982401;28;8991;-73
2022/07/20 12:51:52;;;;;;;;;20.00;20.00;;;;;;;;4982214;28;9019;-74
2022/07/20 12:54:20;;;;;;;;;16.75;15.00;;;;;;;;4982665;28;8885;-73
2022/07/20 12:56:48;;;;;;;;;16.25;16.25;;;;;;;;4983625;28;8897;-73
2022/07/20 12:59:16;;;;;;;;;14.50;14.50;;;;;;;;4981410;28;9734;-72
2022/07/20 13:01:48;;;;;;;;;15.25;14.00;;;;;;;;4981485;28;9811;-74
2022/07/20 13:04:18;;;;;;;;;20.25;17.50;;;;;;;;4983108;28;8857;-75
2022/07/20 13:06:47;;;;;;;;;18.75;18.75;;;;;;;;4982141;28;8870;-76
2022/07/20 13:09:16;;;;;;;;;20.00;20.00;;;;;;;;4983691;28;8865;-74
2022/07/20 13:11:44;;;;;;;;;19.50;18.25;;;;;;;;4979170;28;8869;-75
2022/07/20 13:14:13;;;;;;;;;22.50;18.00;;;;;;;;4983317;28;8877;-74
2022/07/20 13:16:41;;;;;;;;;18.75;18.75;;;;;;;;4982185;28;8999;-74
2022/07/20 13:19:10;;;;;;;;;20.25;20.25;;;;;;;;4979212;28;9616;-74
2022/07/20 13:21:37;;;;;;;;;21.00;18.25;;;;;;;;4983914;28;9822;-75
2022/07/20 13:24:05;;;;;;;;;11.00;9.75;;;;;;;;4986426;28;8884;-77
2022/07/20 13:26:32;;;;;;;;;13.00;10.75;;;;;;;;4982559;28;8996;-73
2022/07/20 13:29:00;;;;;;;;;13.80;13.40;;;;;;;;4980874;28;8983;-73
2022/07/20 13:31:28;;;;;;;;;14.75;12.25;;;;;;;;4982895;28;8809;-74
2022/07/20 13:33:55;;;;;;;;;10.25;10.25;;;;;;;;4979748;28;8877;-74
2022/07/20 13:36:24;;;;;;;;;10.00;10.00;;;;;;;;4982934;28;8881;-74
2022/07/20 13:38:52;;;;;;;;;13.25;10.25;;;;;;;;4982545;28;8881;-73
2022/07/20 13:41:20;;;;;;;;;9.50;9.50;;;;;;;;4983375;28;8896;-74
2022/07/20 13:43:51;;;;;;;;;9.00;9.00;;;;;;;;4982520;28;8895;-73
2022/07/20 13:46:19;;;;;;;;;9.60;9.60;;;;;;;;4981544;28;8857;-73
2022/07/20 13:48:47;;;;;;;;;8.00;7.60;;;;;;;;4979037;28;9015;-73
2022/07/20 13:51:16;;;;;;;;;7.20;7.20;;;;;;;;4980095;28;8881;-72
2022/07/20 13:53:44;;;;;;;;;6.80;5.80;;;;;;;;4983229;28;8869;-72
2022/07/20 13:56:12;;;;;;;;;6.20;5.00;;;;;;;;4981143;28;8893;-72
2022/07/20 13:58:39;;;;;;;;;7.60;7.20;;;;;;;;4982140;28;8877;-73
2022/07/20 14:01:07;;;;;;;;;5.20;5.20;;;;;;;;4982038;28;8821;-72
2022/07/20 14:03:35;;;;;;;;;5.80;5.80;;;;;;;;4981682;28;8877;-72
2022/07/20 14:06:02;;;;;;;;;5.80;5.80;;;;;;;;4983280;28;8873;-71
2022/07/20 14:08:29;;;;;;;;;4.40;4.40;;;;;;;;4964083;28;9561;-72
2022/07/20 14:10:58;;;;;;;;;4.60;4.60;;;;;;;;4978466;28;8893;-72
2022/07/20 14:13:26;;;;;;;;;9.20;6.00;;;;;;;;4979668;28;9702;-72
2022/07/20 14:15:53;;;;;;;;;5.40;4.80;;;;;;;;4983596;28;8891;-72
2022/07/20 14:18:20;;;;;;;;;11.00;7.80;;;;;;;;4978865;28;8869;-73
2022/07/20 14:20:48;;;;;;;;;5.00;5.00;;;;;;;;4982587;28;8869;-73
2022/07/20 14:23:15;;;;;;;;;7.80;6.00;;;;;;;;4982676;28;8911;-72
2022/07/20 14:25:42;;;;;;;;;5.20;5.20;;;;;;;;4976766;28;8865;-73
2022/07/20 14:28:11;;;;;;;;;7.00;7.00;;;;;;;;4983547;28;8891;-71
2022/07/20 14:30:39;;;;;;;;;6.80;6.80;;;;;;;;4985279;28;8821;-73
2022/07/20 14:33:06;;;;;;;;;6.00;6.00;;;;;;;;4986263;28;9878;-72
2022/07/20 14:35:35;;;;;;;;;4.80;4.80;;;;;;;;4982479;28;8857;-73
2022/07/20 14:38:02;;;;;;;;;8.80;8.80;;;;;;;;4984646;28;9008;-73
2022/07/20 14:40:30;;;;;;;;;8.40;8.00;;;;;;;;4986940;28;8868;-72
2022/07/20 14:42:57;;;;;;;;;9.00;7.00;;;;;;;;4984890;28;8885;-73
2022/07/20 14:45:26;;;;;;;;;11.20;8.60;;;;;;;;4985979;28;8881;-72
2022/07/20 14:47:53;;;;;;;;;7.00;7.00;;;;;;;;4984406;28;9034;-71
2022/07/20 14:50:20;;;;;;;;;7.00;7.00;;;;;;;;4968312;28;8893;-72